Time;durP1;ratioP1;P1;durP2;ratioP2;P2;SDS_P1;SDS_P2;PMS_P1;PMS_P2;Temp;Humidity;BMP_temperature;BMP_pressure;BME280_temperature;BME280_humidity;BME280_pressure;Samples;Min_cycle;Max_cycle;Signal;HPM_P1;HPM_P2
2021/12/05 00:19:47;;;;;;;18.75;4.97;;;;;;;3.20;99.14;99733.78;6258728;22;20015;-61
2021/12/05 00:22:25;;;;;;;16.88;4.03;;;;;;;3.37;98.67;99731.16;6248452;22;20436;-61
2021/12/05 00:24:55;;;;;;;16.08;4.57;;;;;;;3.25;97.98;99708.78;6248739;22;20004;-61
2021/12/05 00:27:27;;;;;;;17.33;4.47;;;;;;;3.35;97.59;99732.88;6248148;22;20030;-61
2021/12/05 00:30:26;;;;;;;13.48;4.25;;;;;;;3.40;97.52;99733.72;6248301;22;20004;-63
2021/12/05 00:33:07;;;;;;;14.18;4.18;;;;;;;3.34;97.83;99733.75;6248695;22;20008;-61
2021/12/05 00:43:55;;;;;;;12.88;4.68;;;;;;;3.33;96.68;99729.44;6248054;23;20015;-61
2021/12/05 00:46:40;;;;;;;18.42;4.72;;;;;;;3.15;98.01;99728.59;6247607;23;20018;-61
2021/12/05 01:10:38;;;;;;;18.92;5.50;;;;;;;2.78;98.85;99745.84;6247407;23;20058;-62
2021/12/05 01:12:40;;;;;;;22.08;5.88;;;;;;;2.71;99.06;99740.69;6226506;23;20023;-61
2021/12/05 01:15:12;;;;;;;20.58;5.97;;;;;;;2.69;99.16;99737.25;6247645;22;20425;-61
2021/12/05 01:18:00;;;;;;;20.03;6.20;;;;;;;2.66;99.64;99732.06;6247978;22;20004;-61
2021/12/05 01:20:29;;;;;;;17.25;5.45;;;;;;;2.59;98.91;99730.38;6248754;22;20231;-61
2021/12/05 01:23:03;;;;;;;20.25;5.70;;;;;;;2.55;99.13;99720.88;6247998;22;20014;-61
2021/12/05 01:28:13;;;;;;;21.15;5.28;;;;;;;2.53;99.30;99728.63;6257570;22;20012;-62
2021/12/05 01:38:08;;;;;;;17.33;4.65;;;;;;;2.37;100.00;99732.91;6255959;22;20447;-61
2021/12/05 02:09:55;;;;;;;19.73;4.57;;;;;;;2.36;100.00;99715.69;6247548;23;20022;-60
2021/12/05 02:42:16;;;;;;;17.83;4.07;;;;;;;2.58;99.68;99702.81;6259516;22;20012;-60
2021/12/05 02:44:43;;;;;;;16.10;3.72;;;;;;;2.55;100.00;99702.81;6249394;22;20008;-60
2021/12/05 02:47:15;;;;;;;11.00;3.70;;;;;;;2.53;100.00;99709.69;6249174;22;20004;-60
2021/12/05 02:49:45;;;;;;;15.65;3.55;;;;;;;2.57;100.00;99698.50;6249350;22;20019;-61
2021/12/05 02:52:21;;;;;;;13.75;3.95;;;;;;;2.55;100.00;99705.38;6249289;22;20042;-60
2021/12/05 02:54:51;;;;;;;11.57;3.65;;;;;;;2.48;100.00;99699.34;6249433;22;20051;-60
2021/12/05 02:57:50;;;;;;;12.90;3.58;;;;;;;2.57;100.00;99701.09;6249202;22;20053;-60
2021/12/05 03:00:45;;;;;;;15.35;3.58;;;;;;;2.72;100.00;99708.84;6248725;22;20461;-61
2021/12/05 03:03:19;;;;;;;15.85;4.40;;;;;;;2.54;100.00;99709.69;6249686;22;20004;-60
2021/12/05 03:05:55;;;;;;;20.48;4.40;;;;;;;2.68;100.00;99717.44;6249018;22;20016;-60
2021/12/05 03:08:21;;;;;;;18.55;4.05;;;;;;;2.61;100.00;99710.53;6249190;22;20000;-60
2021/12/05 03:10:47;;;;;;;17.25;4.28;;;;;;;2.62;100.00;99712.25;6248819;22;20015;-61
2021/12/05 03:13:12;;;;;;;16.80;4.28;;;;;;;2.68;100.00;99710.56;6249092;22;20030;-60
2021/12/05 03:15:38;;;;;;;14.07;4.40;;;;;;;2.73;100.00;99698.50;6248689;22;20066;-60
2021/12/05 03:18:03;;;;;;;11.85;3.90;;;;;;;2.75;100.00;99699.38;6248768;22;20011;-60
2021/12/05 03:20:29;;;;;;;12.73;4.40;;;;;;;2.74;100.00;99697.66;6249170;22;20008;-60
2021/12/05 03:22:55;;;;;;;14.70;4.47;;;;;;;2.75;100.00;99696.78;6248482;23;20364;-60
2021/12/05 03:25:21;;;;;;;17.65;4.65;;;;;;;2.75;100.00;99693.34;6248445;22;20015;-61
2021/12/05 03:27:47;;;;;;;14.50;5.03;;;;;;;2.81;100.00;99690.75;6248533;22;20015;-61
2021/12/05 03:30:19;;;;;;;16.58;4.57;;;;;;;2.84;100.00;99695.03;6248402;22;20389;-61
2021/12/05 03:32:46;;;;;;;10.93;4.97;;;;;;;2.73;100.00;99687.31;6248358;22;20062;-61
2021/12/05 03:35:11;;;;;;;13.60;5.00;;;;;;;2.78;100.00;99689.00;6248682;22;20117;-61
2021/12/05 03:37:37;;;;;;;15.82;4.95;;;;;;;2.79;100.00;99695.03;6248530;22;20394;-61
2021/12/05 03:40:05;;;;;;;16.52;5.10;;;;;;;2.77;100.00;99692.47;6248613;22;20011;-62
2021/12/05 03:42:31;;;;;;;13.43;5.22;;;;;;;2.78;100.00;99690.72;6248832;22;20079;-61
2021/12/05 03:44:56;;;;;;;15.35;5.80;;;;;;;2.86;100.00;99686.44;6248700;22;20043;-61
2021/12/05 03:47:22;;;;;;;14.48;5.40;;;;;;;2.88;100.00;99694.19;6248707;23;20091;-61
2021/12/05 03:49:47;;;;;;;12.40;5.50;;;;;;;2.79;100.00;99682.13;6248732;22;20384;-61
2021/12/05 03:52:17;;;;;;;10.85;5.32;;;;;;;2.96;100.00;99695.03;6248654;23;20008;-61
2021/12/05 03:54:44;;;;;;;9.38;4.15;;;;;;;3.02;100.00;99693.31;6248572;22;20004;-61
2021/12/05 03:57:09;;;;;;;15.45;5.63;;;;;;;3.06;99.87;99692.44;6248351;22;20410;-61
2021/12/05 03:59:35;;;;;;;13.73;5.00;;;;;;;3.07;100.00;99688.13;6248792;22;20046;-61
2021/12/05 04:02:04;;;;;;;11.88;5.15;;;;;;;3.12;100.00;99696.72;6248206;22;20000;-61
2021/12/05 04:04:29;;;;;;;14.13;5.63;;;;;;;3.19;99.71;99700.16;6248631;22;20011;-61
2021/12/05 04:06:55;;;;;;;11.20;4.85;;;;;;;3.22;99.33;99693.28;6248171;22;20000;-62
2021/12/05 04:09:20;;;;;;;15.00;5.43;;;;;;;3.21;99.93;99704.47;6248518;22;20015;-61
2021/12/05 04:11:57;;;;;;;10.82;4.88;;;;;;;3.18;100.00;99703.63;6248436;23;20004;-61
2021/12/05 04:14:25;;;;;;;11.68;4.82;;;;;;;3.18;100.00;99709.66;6248502;22;20015;-61
2021/12/05 04:16:51;;;;;;;12.43;5.07;;;;;;;3.21;100.00;99704.47;6249021;22;20031;-61
2021/12/05 04:19:17;;;;;;;10.35;4.63;;;;;;;3.31;99.48;99706.16;6248338;22;20082;-61
2021/12/05 04:21:42;;;;;;;10.18;4.70;;;;;;;3.23;99.96;99696.72;6246992;23;20035;-61
2021/12/05 04:24:10;;;;;;;11.07;4.80;;;;;;;3.28;99.62;99695.00;6248296;22;20012;-61
2021/12/05 04:26:36;;;;;;;10.00;4.13;;;;;;;3.17;100.00;99699.31;6248257;22;20004;-61
2021/12/05 04:29:03;;;;;;;11.82;4.57;;;;;;;3.32;99.48;99715.63;6248555;22;20046;-61
2021/12/05 04:31:28;;;;;;;13.60;4.82;;;;;;;3.24;100.00;99699.31;6248304;22;20004;-61
2021/12/05 04:33:53;;;;;;;14.57;4.60;;;;;;;3.29;100.00;99707.06;6247902;22;20069;-61
2021/12/05 04:36:20;;;;;;;13.88;4.70;;;;;;;3.26;99.86;99697.56;6248120;23;20003;-60
2021/12/05 04:38:46;;;;;;;15.65;5.13;;;;;;;3.26;100.00;99707.06;6248468;22;20008;-60
2021/12/05 04:41:12;;;;;;;12.15;4.57;;;;;;;3.30;100.00;99706.16;6247926;22;20114;-60
2021/12/05 04:43:38;;;;;;;13.38;5.10;;;;;;;3.25;100.00;99706.19;6248080;22;20004;-60
2021/12/05 04:46:08;;;;;;;14.73;4.88;;;;;;;3.40;100.00;99713.91;6247702;22;20310;-60
2021/12/05 04:48:33;;;;;;;14.50;4.80;;;;;;;3.36;99.87;99703.56;6247769;22;20011;-60
2021/12/05 04:50:59;;;;;;;12.55;4.50;;;;;;;3.34;100.00;99710.47;6247962;22;20004;-61
2021/12/05 04:53:27;;;;;;;10.88;3.45;;;;;;;3.40;100.00;99708.75;6248397;22;20000;-60
2021/12/05 04:55:53;;;;;;;9.25;4.43;;;;;;;3.36;99.97;99706.16;6248173;22;20313;-60
2021/12/05 04:58:18;;;;;;;8.77;4.00;;;;;;;3.40;99.96;99716.50;6248109;22;20079;-61
2021/12/05 05:00:44;;;;;;;10.65;4.60;;;;;;;3.38;99.92;99702.72;6248022;22;20004;-60
2021/12/05 05:03:12;;;;;;;9.00;3.83;;;;;;;3.36;100.00;99699.25;6248021;22;20083;-60
2021/12/05 05:05:42;;;;;;;9.48;4.03;;;;;;;3.36;100.00;99706.16;6247581;22;20032;-60
2021/12/05 05:08:08;;;;;;;11.50;4.55;;;;;;;3.44;100.00;99702.69;6247839;22;20004;-61
2021/12/05 05:10:34;;;;;;;9.60;4.40;;;;;;;3.28;100.00;99695.00;6248516;23;20030;-60
2021/12/05 05:12:59;;;;;;;12.02;4.70;;;;;;;3.33;100.00;99701.84;6247698;22;20282;-60
2021/12/05 05:15:28;;;;;;;9.93;4.70;;;;;;;3.30;100.00;99704.44;6247960;22;20008;-60
2021/12/05 05:17:55;;;;;;;9.48;4.30;;;;;;;3.30;100.00;99711.34;6247844;22;20012;-61
2021/12/05 05:20:45;;;;;;;10.52;4.18;;;;;;;3.32;100.00;99709.59;6247959;22;20035;-60
2021/12/05 05:23:38;;;;;;;8.25;3.75;;;;;;;3.37;100.00;99708.75;6247931;22;20406;-60
2021/12/05 05:26:42;;;;;;;;;;;;;;;3.41;100.00;99719.94;6248368;22;20004;-60
2021/12/05 05:48:16;;;;;;;5.90;2.90;;;;;;;3.30;99.97;99732.00;6250283;23;20027;-61
2021/12/05 05:50:44;;;;;;;5.38;2.67;;;;;;;3.28;99.81;99733.78;6249829;22;20008;-60
2021/12/05 05:53:10;;;;;;;4.15;2.33;;;;;;;3.23;99.70;99735.50;6249884;22;20014;-60
2021/12/05 05:55:36;;;;;;;3.72;2.75;;;;;;;3.24;99.47;99740.66;6249525;22;20091;-60
2021/12/05 05:58:08;;;;;;;5.13;2.60;;;;;;;3.11;99.88;99737.25;6249793;22;20062;-60
2021/12/05 06:00:42;;;;;;;3.15;2.45;;;;;;;3.19;99.78;99742.38;6249454;22;20004;-60
2021/12/05 06:03:24;;;;;;;4.25;2.28;;;;;;;3.04;100.00;99745.00;6250215;22;20000;-60
2021/12/05 06:05:56;;;;;;;4.40;2.17;;;;;;;3.07;100.00;99740.69;6249906;23;20122;-61
2021/12/05 06:08:24;;;;;;;4.28;2.47;;;;;;;2.97;100.00;99751.88;6249685;22;20019;-60
2021/12/05 06:10:51;;;;;;;3.50;2.38;;;;;;;2.95;100.00;99744.97;6249677;22;20091;-60
2021/12/05 06:13:18;;;;;;;5.07;2.45;;;;;;;3.00;100.00;99748.44;6249990;22;20027;-60
2021/12/05 06:15:46;;;;;;;3.67;2.63;;;;;;;2.91;100.00;99754.47;6249190;22;20400;-60
2021/12/05 06:18:12;;;;;;;3.63;2.75;;;;;;;2.94;100.00;99749.31;6249635;22;20019;-60
2021/12/05 06:20:38;;;;;;;4.57;2.90;;;;;;;2.86;100.00;99745.00;6249477;22;20030;-60
2021/12/05 06:23:04;;;;;;;4.10;2.63;;;;;;;3.04;100.00;99751.03;6249635;22;20048;-60
2021/12/05 06:25:34;;;;;;;4.75;2.70;;;;;;;2.90;100.00;99754.47;6249200;22;20016;-60
2021/12/05 06:28:05;;;;;;;4.88;2.80;;;;;;;2.95;100.00;99756.19;6249766;22;20016;-60
2021/12/05 06:30:49;;;;;;;5.95;2.70;;;;;;;2.90;100.00;99759.66;6249207;22;20450;-60
2021/12/05 06:46:29;;;;;;;4.75;2.70;;;;;;;2.97;100.00;99782.88;6259411;22;20036;-60
2021/12/05 06:48:55;;;;;;;3.97;2.97;;;;;;;2.91;100.00;99777.72;6249443;22;20004;-60
2021/12/05 06:51:24;;;;;;;4.60;3.15;;;;;;;2.90;100.00;99786.34;6249146;22;20014;-60
2021/12/05 06:53:50;;;;;;;6.10;2.85;;;;;;;2.95;100.00;99784.59;6250063;22;20345;-60
2021/12/05 06:56:16;;;;;;;5.35;3.17;;;;;;;2.93;100.00;99785.50;6249067;22;20074;-60
2021/12/05 06:58:42;;;;;;;5.28;3.20;;;;;;;2.93;100.00;99785.50;6249546;22;20016;-60
2021/12/05 07:01:10;;;;;;;5.93;3.45;;;;;;;2.91;100.00;99790.66;6249249;23;20075;-60
2021/12/05 07:03:38;;;;;;;5.00;3.55;;;;;;;2.95;100.00;99805.28;6249217;22;20015;-60
2021/12/05 07:06:10;;;;;;;5.57;3.40;;;;;;;2.94;100.00;99807.88;6248824;22;20071;-61
2021/12/05 07:08:39;;;;;;;7.90;3.97;;;;;;;3.02;100.00;99817.34;6249256;22;20015;-60
2021/12/05 07:16:17;;;;;;;5.18;4.15;;;;;;;2.98;100.00;99820.78;6258770;23;20028;-60
2021/12/05 07:19:06;;;;;;;5.82;4.55;;;;;;;3.11;100.00;99824.25;6248870;22;20062;-60
2021/12/05 07:21:47;;;;;;;8.48;4.63;;;;;;;3.05;100.00;99827.69;6248873;22;20016;-60
2021/12/05 07:27:03;;;;;;;6.72;5.10;;;;;;;3.07;100.00;99827.69;6259022;22;20004;-60
2021/12/05 07:40:26;;;;;;;7.18;5.20;;;;;;;3.08;100.00;99844.94;6249109;23;20420;-60
2021/12/05 07:42:55;;;;;;;7.32;4.90;;;;;;;3.13;100.00;99849.22;6249112;22;20022;-60
2021/12/05 07:45:29;;;;;;;5.97;4.47;;;;;;;3.27;100.00;99850.97;6248724;22;20019;-60
2021/12/05 07:47:55;;;;;;;7.63;5.03;;;;;;;3.18;100.00;99856.13;6248544;22;20019;-60
2021/12/05 07:50:31;;;;;;;5.70;4.80;;;;;;;3.17;100.00;99854.41;6248935;22;20008;-60
2021/12/05 07:53:04;;;;;;;7.78;5.30;;;;;;;3.13;100.00;99861.28;6248587;22;20267;-60
2021/12/05 07:55:37;;;;;;;7.55;4.90;;;;;;;3.16;100.00;99861.28;6248670;22;20015;-60
2021/12/05 07:58:51;;;;;;;;;;;;;;;3.20;100.00;99869.91;6248941;22;20070;-61
2021/12/05 08:14:26;;;;;;;7.30;5.05;;;;;;;3.20;100.00;99873.34;6248141;23;20026;-60
2021/12/05 08:14:47;;;;;;;8.40;4.85;;;;;;;3.35;100.00;99888.00;6248078;23;20407;-60
2021/12/05 08:17:17;;;;;;;5.82;4.55;;;;;;;3.26;100.00;99882.84;6248356;22;20011;-60
2021/12/05 08:19:43;;;;;;;8.13;4.93;;;;;;;3.20;100.00;99872.50;6248904;22;20039;-60
2021/12/05 08:22:09;;;;;;;5.93;4.53;;;;;;;3.33;100.00;99888.00;6248321;22;20004;-60
2021/12/05 08:24:37;;;;;;;8.30;4.90;;;;;;;3.34;100.00;99888.88;6248318;22;20007;-60
2021/12/05 08:27:05;;;;;;;7.85;4.70;;;;;;;3.35;100.00;99886.28;6248311;22;20102;-61
2021/12/05 08:29:39;;;;;;;5.18;4.25;;;;;;;3.36;100.00;99892.31;6246632;23;20018;-62
2021/12/05 08:32:21;;;;;;;6.78;4.68;;;;;;;3.35;100.00;99895.78;6248234;22;20028;-60
2021/12/05 08:34:59;;;;;;;7.03;4.70;;;;;;;3.45;100.00;99905.28;6248261;22;20008;-60
2021/12/05 08:38:28;;;;;;;5.82;4.80;;;;;;;3.41;100.00;99914.75;6248081;22;20393;-60
2021/12/05 08:43:41;;;;;;;8.75;4.80;;;;;;;3.44;100.00;99911.31;6258555;23;20301;-60
2021/12/05 09:08:45;;;;;;;7.65;4.93;;;;;;;3.47;100.00;99913.88;6247947;23;20030;-60
2021/12/05 09:21:56;;;;;;;7.47;6.15;;;;;;;3.57;100.00;99946.66;6246954;23;20026;-61
2021/12/05 09:24:37;;;;;;;8.20;6.30;;;;;;;3.53;100.00;99955.25;6247530;23;20077;-60
2021/12/05 09:51:01;;;;;;;11.65;7.38;;;;;;;3.61;100.00;99989.78;6247416;23;20090;-59
2021/12/05 10:10:49;;;;;;;11.63;8.68;;;;;;;3.57;100.00;100023.38;6246329;23;20023;-60
2021/12/05 10:13:36;;;;;;;13.27;9.15;;;;;;;3.58;100.00;100027.69;6245510;22;20302;-60
2021/12/05 10:38:09;;;;;;;12.98;8.38;;;;;;;3.66;100.00;100052.72;6248563;23;20158;-61
2021/12/05 10:40:44;;;;;;;11.13;8.23;;;;;;;3.69;100.00;100057.03;6249326;22;20008;-61
2021/12/05 10:43:20;;;;;;;13.73;8.40;;;;;;;3.70;100.00;100051.00;6249071;22;20008;-62
2021/12/05 10:45:55;;;;;;;12.05;8.32;;;;;;;3.74;100.00;100063.09;6249209;22;20091;-61
2021/12/05 10:48:34;;;;;;;12.70;8.57;;;;;;;3.70;100.00;100056.16;6248826;22;20008;-61
2021/12/05 10:51:14;;;;;;;11.63;7.80;;;;;;;3.72;100.00;100057.91;6249281;22;20019;-61
2021/12/05 10:53:46;;;;;;;11.02;7.97;;;;;;;3.71;100.00;100058.75;6249062;22;20074;-62
2021/12/05 10:56:28;;;;;;;9.80;8.02;;;;;;;3.82;100.00;100064.81;6249095;22;20008;-61
2021/12/05 10:59:12;;;;;;;7.78;6.72;;;;;;;3.82;100.00;100072.56;6248889;22;20016;-61
2021/12/05 11:01:56;;;;;;;8.52;6.75;;;;;;;3.78;100.00;100073.44;6248520;22;20471;-63
2021/12/05 11:04:29;;;;;;;8.80;7.82;;;;;;;3.77;100.00;100069.13;6248982;22;20066;-61
2021/12/05 11:07:00;;;;;;;7.30;6.32;;;;;;;3.77;100.00;100071.72;6249426;23;20345;-61
2021/12/05 11:09:32;;;;;;;6.43;5.57;;;;;;;3.85;100.00;100069.13;6249135;22;20028;-61
2021/12/05 11:12:08;;;;;;;6.10;5.50;;;;;;;3.97;100.00;100070.88;6248988;22;20003;-61
2021/12/05 11:14:40;;;;;;;6.80;5.85;;;;;;;3.86;100.00;100044.97;6248774;22;20344;-64
2021/12/05 11:17:10;;;;;;;6.47;5.72;;;;;;;4.08;100.00;100072.59;6249333;22;20023;-60
2021/12/05 11:19:48;;;;;;;8.65;6.90;;;;;;;4.20;100.00;100062.25;6249209;22;20008;-60
2021/12/05 11:22:21;;;;;;;7.70;6.35;;;;;;;4.21;100.00;100063.09;6248750;22;20039;-61
2021/12/05 11:24:46;;;;;;;8.32;7.10;;;;;;;4.19;100.00;100057.06;6248418;22;20262;-60
2021/12/05 11:27:17;;;;;;;8.52;7.45;;;;;;;4.22;100.00;100066.56;6248784;23;20015;-60
2021/12/05 11:30:22;;;;;;;10.40;8.05;;;;;;;4.25;100.00;100071.75;6249445;22;20004;-61
2021/12/05 11:32:58;;;;;;;7.80;6.93;;;;;;;4.15;100.00;100078.66;6231739;23;20301;-61
2021/12/05 11:35:31;;;;;;;7.88;6.70;;;;;;;4.14;100.00;100082.13;6248701;22;20008;-60
2021/12/05 11:38:13;;;;;;;5.85;5.25;;;;;;;4.18;100.00;100086.41;6248701;22;20145;-60
2021/12/05 11:40:50;;;;;;;7.25;5.32;;;;;;;4.10;100.00;100085.56;6249097;22;20019;-60
2021/12/05 11:43:21;;;;;;;7.13;5.38;;;;;;;4.09;99.76;100092.47;6248315;23;20008;-59
2021/12/05 11:46:02;;;;;;;7.87;6.33;;;;;;;4.06;100.00;100099.34;6248138;22;20286;-61
2021/12/05 11:48:34;;;;;;;7.22;5.88;;;;;;;3.98;100.00;100104.53;6248288;23;20004;-61
2021/12/05 11:51:15;;;;;;;7.40;6.15;;;;;;;3.95;100.00;100109.72;6248432;22;20067;-61
2021/12/05 11:53:49;;;;;;;8.77;6.78;;;;;;;3.96;100.00;100105.41;6248757;22;20004;-59
2021/12/05 11:56:34;;;;;;;9.73;7.28;;;;;;;4.00;100.00;100112.28;6247885;22;20084;-64
2021/12/05 11:59:12;;;;;;;10.98;7.38;;;;;;;4.02;100.00;100119.19;6247828;22;20004;-64
2021/12/05 12:01:44;;;;;;;8.98;7.00;;;;;;;4.01;100.00;100114.88;6248403;22;20314;-65
2021/12/05 12:04:14;;;;;;;8.65;7.20;;;;;;;4.00;100.00;100112.28;6247968;22;20087;-64
2021/12/05 12:06:41;;;;;;;9.38;7.05;;;;;;;4.03;100.00;100120.91;6246897;22;20016;-65
2021/12/05 12:09:07;;;;;;;7.50;6.43;;;;;;;4.04;100.00;100125.22;6248745;22;20126;-65
2021/12/05 12:11:34;;;;;;;7.93;6.90;;;;;;;4.05;100.00;100123.50;6248174;23;20023;-65
2021/12/05 12:13:59;;;;;;;7.38;6.55;;;;;;;4.05;99.99;100110.56;6247714;22;20019;-64
2021/12/05 12:16:25;;;;;;;7.20;6.50;;;;;;;4.09;100.00;100128.69;6248197;22;20004;-65
2021/12/05 12:18:51;;;;;;;7.18;5.90;;;;;;;4.11;100.00;100124.41;6248290;22;20405;-63
2021/12/05 12:21:25;;;;;;;6.72;6.00;;;;;;;4.16;99.97;100124.38;6248540;22;20680;-65
2021/12/05 12:23:58;;;;;;;6.70;5.97;;;;;;;4.13;100.00;100129.56;6247799;22;20498;-64
2021/12/05 12:26:24;;;;;;;7.03;6.15;;;;;;;4.18;99.08;100123.53;6246610;22;20019;-65
2021/12/05 12:28:50;;;;;;;7.13;6.40;;;;;;;4.22;98.68;100123.53;6243337;22;20008;-65
2021/12/05 12:31:28;;;;;;;8.80;7.25;;;;;;;4.24;99.73;100132.16;6245523;22;20008;-65
2021/12/05 12:33:56;;;;;;;8.57;7.30;;;;;;;4.22;99.64;100133.88;6245718;22;20015;-65
2021/12/05 12:36:33;;;;;;;9.38;8.00;;;;;;;4.29;99.09;100136.50;6245783;22;20291;-65
2021/12/05 12:39:03;;;;;;;10.45;7.75;;;;;;;4.28;99.38;100139.94;6245462;22;20369;-66
2021/12/05 12:41:30;;;;;;;11.90;8.35;;;;;;;4.29;99.93;100136.50;6245883;22;20305;-66
2021/12/05 12:43:58;;;;;;;10.32;8.00;;;;;;;4.29;99.88;100144.25;6245496;22;20015;-65
2021/12/05 12:46:45;;;;;;;9.90;8.90;;;;;;;4.33;98.91;100148.56;6244949;22;20413;-59
2021/12/05 12:49:13;;;;;;;10.07;8.48;;;;;;;4.31;99.34;100155.50;6246164;22;20020;-60
2021/12/05 12:51:40;;;;;;;9.93;8.88;;;;;;;4.17;100.00;100128.69;6244480;23;20015;-62
2021/12/05 12:54:14;;;;;;;14.70;11.50;;;;;;;4.30;98.80;100153.75;6244533;22;20012;-63
2021/12/05 12:56:42;;;;;;;23.67;14.82;;;;;;;4.31;99.03;100165.84;6245031;22;20083;-62
2021/12/05 12:59:13;;;;;;;34.92;22.05;;;;;;;4.32;99.12;100156.34;6245392;22;20015;-62
2021/12/05 13:02:13;;;;;;;45.90;31.25;;;;;;;4.31;99.33;100165.84;6244992;22;20437;-63
2021/12/05 13:10:30;;;;;;;11.45;9.32;;;;;;;4.39;99.07;100173.59;6245484;23;20023;-62
2021/12/05 13:13:00;;;;;;;11.73;9.90;;;;;;;4.39;99.18;100177.06;6244234;23;19999;-62
2021/12/05 13:15:37;;;;;;;14.85;11.85;;;;;;;4.44;99.03;100177.94;6244430;22;20008;-61
2021/12/05 13:18:08;;;;;;;13.98;10.73;;;;;;;4.31;98.86;100154.63;6245772;22;20019;-62
2021/12/05 13:20:56;;;;;;;12.27;9.40;;;;;;;4.45;98.66;100179.66;6245566;23;20286;-61
2021/12/05 13:23:39;;;;;;;10.80;8.93;;;;;;;4.45;97.28;100184.84;6245382;22;20484;-60
2021/12/05 13:26:19;;;;;;;11.40;8.75;;;;;;;4.43;96.99;100185.72;6245994;22;20015;-61
2021/12/05 13:28:55;;;;;;;11.95;9.85;;;;;;;4.38;98.05;100183.09;6246064;23;20068;-61
2021/12/05 13:31:32;;;;;;;12.05;10.02;;;;;;;4.44;98.65;100187.44;6245495;22;20004;-62
2021/12/05 13:34:15;;;;;;;13.23;9.85;;;;;;;4.44;98.57;100203.84;6245109;22;20004;-62
2021/12/05 13:36:44;;;;;;;12.90;10.55;;;;;;;4.41;98.74;100198.66;6246115;23;20005;-60
2021/12/05 13:39:28;;;;;;;23.15;15.70;;;;;;;4.41;98.14;100203.84;6245701;22;20026;-60
2021/12/05 13:42:11;;;;;;;19.70;14.55;;;;;;;4.40;97.77;100196.94;6245597;23;20032;-62
2021/12/05 13:45:08;;;;;;;15.85;13.07;;;;;;;4.42;98.92;100226.28;6245103;22;20011;-61
2021/12/05 13:47:53;;;;;;;13.70;10.60;;;;;;;4.37;98.31;100216.78;6245089;22;20461;-62
2021/12/05 13:50:18;;;;;;;12.90;10.55;;;;;;;4.38;98.89;100214.19;6245242;22;20000;-62
2021/12/05 13:52:52;;;;;;;12.50;10.43;;;;;;;4.39;99.06;100221.09;6245452;22;20004;-63
2021/12/05 13:55:54;;;;;;;13.20;10.10;;;;;;;4.42;98.86;100226.28;6245654;22;20348;-60
2021/12/05 13:58:19;;;;;;;14.20;10.65;;;;;;;4.42;99.04;100218.53;6245426;23;20302;-60
2021/12/05 14:01:04;;;;;;;12.50;10.02;;;;;;;4.32;98.70;100211.63;6245055;23;20000;-61
2021/12/05 14:03:44;;;;;;;11.77;9.02;;;;;;;4.39;98.86;100223.69;6245607;22;20035;-60
2021/12/05 14:06:52;;;;;;;11.15;9.25;;;;;;;4.40;98.63;100235.78;6246127;22;20013;-61
2021/12/05 14:09:47;;;;;;;11.52;9.35;;;;;;;4.37;98.55;100229.72;6188516;22;20015;-61
2021/12/05 14:12:18;;;;;;;10.82;9.02;;;;;;;4.31;98.37;100238.38;6246988;22;20012;-61
2021/12/05 14:14:46;;;;;;;11.30;9.20;;;;;;;4.35;98.23;100246.97;6246939;22;20043;-62
2021/12/05 14:17:19;;;;;;;10.63;8.57;;;;;;;4.31;97.20;100251.31;6246258;22;20004;-61
2021/12/05 14:19:49;;;;;;;10.70;8.77;;;;;;;4.29;98.17;100249.59;6246765;22;20000;-61
2021/12/05 14:22:16;;;;;;;10.35;8.70;;;;;;;4.28;97.95;100251.31;6246546;22;20005;-61
2021/12/05 14:24:47;;;;;;;10.70;8.43;;;;;;;4.24;98.14;100243.50;6246725;22;20508;-60
2021/12/05 14:27:23;;;;;;;13.35;10.32;;;;;;;4.28;97.77;100263.38;6247009;22;20417;-60
2021/12/05 14:29:51;;;;;;;12.93;9.93;;;;;;;4.28;98.35;100264.25;6246624;22;20007;-60
2021/12/05 14:32:24;;;;;;;10.63;8.07;;;;;;;4.28;97.54;100278.94;6247391;22;20042;-61
2021/12/05 14:35:01;;;;;;;9.23;7.72;;;;;;;4.23;96.56;100270.28;6247240;22;20083;-62
2021/12/05 14:37:31;;;;;;;11.32;9.02;;;;;;;4.26;97.54;100288.41;6247031;22;20325;-60
2021/12/05 14:40:00;;;;;;;9.35;8.10;;;;;;;4.26;96.94;100299.63;6246670;22;20078;-60
2021/12/05 14:42:29;;;;;;;10.52;8.85;;;;;;;4.26;97.65;100294.47;6246929;22;20012;-61
2021/12/05 14:44:58;;;;;;;10.43;8.30;;;;;;;4.29;97.35;100312.59;6246568;22;20008;-63
2021/12/05 14:47:26;;;;;;;10.10;7.97;;;;;;;4.31;98.71;100310.03;6246575;22;20366;-61
2021/12/05 14:49:55;;;;;;;10.75;8.38;;;;;;;4.30;97.43;100313.47;6246985;22;20008;-61
2021/12/05 14:52:25;;;;;;;9.73;7.85;;;;;;;4.25;95.89;100313.44;6247616;22;20000;-61
2021/12/05 14:54:52;;;;;;;10.45;8.10;;;;;;;4.26;95.80;100317.78;6248862;22;20008;-65
2021/12/05 14:57:26;;;;;;;11.95;9.55;;;;;;;4.27;96.32;100318.63;6247897;23;20019;-64
2021/12/05 15:00:00;;;;;;;11.50;7.82;;;;;;;4.24;94.46;100329.84;6248588;22;20011;-64
2021/12/05 15:02:27;;;;;;;10.93;8.02;;;;;;;4.18;95.56;100327.22;6248896;22;20019;-65
2021/12/05 15:04:53;;;;;;;10.18;7.90;;;;;;;4.18;95.48;100337.56;6249078;23;20026;-62
2021/12/05 15:07:24;;;;;;;10.57;7.93;;;;;;;4.19;96.15;100341.91;6248935;22;20001;-61
2021/12/05 15:09:53;;;;;;;10.88;8.35;;;;;;;4.19;95.81;100339.31;6248199;22;20094;-62
2021/12/05 15:12:30;;;;;;;10.20;7.22;;;;;;;4.20;96.78;100352.25;6247931;22;20317;-62
2021/12/05 15:14:58;;;;;;;9.65;7.78;;;;;;;4.17;96.19;100359.16;6249016;22;20042;-61
2021/12/05 15:17:31;;;;;;;13.15;9.77;;;;;;;4.17;97.08;100364.31;6249025;22;20083;-61
2021/12/05 15:19:59;;;;;;;11.77;9.90;;;;;;;4.13;97.23;100368.66;6248929;22;20008;-61
2021/12/05 15:22:25;;;;;;;15.48;13.05;;;;;;;4.12;97.57;100372.09;6248528;22;20004;-61
2021/12/05 15:24:53;;;;;;;13.05;11.60;;;;;;;4.11;98.13;100375.53;6248765;22;20083;-62
2021/12/05 15:27:21;;;;;;;11.75;9.07;;;;;;;4.08;97.42;100392.78;6248913;22;20008;-61
2021/12/05 15:29:53;;;;;;;11.60;9.45;;;;;;;4.08;98.08;100388.47;6248672;22;20011;-61
2021/12/05 15:32:24;;;;;;;14.10;9.82;;;;;;;4.10;98.92;100398.84;6248811;22;20335;-62
2021/12/05 15:34:56;;;;;;;13.27;10.25;;;;;;;4.10;99.99;100399.69;6248819;22;20035;-61
2021/12/05 15:37:22;;;;;;;13.55;9.80;;;;;;;4.10;99.16;100410.06;6248861;23;20066;-62
2021/12/05 15:39:50;;;;;;;12.65;9.48;;;;;;;4.08;98.05;100414.34;6249306;22;20019;-62
2021/12/05 15:42:21;;;;;;;12.20;9.98;;;;;;;4.08;99.05;100427.31;6248587;22;20014;-61
2021/12/05 15:44:48;;;;;;;12.70;9.32;;;;;;;4.07;98.88;100424.69;6248628;22;20004;-61
2021/12/05 15:47:16;;;;;;;9.55;7.43;;;;;;;4.08;97.63;100426.44;6247317;22;20000;-66
2021/12/05 15:50:10;;;;;;;9.75;7.85;;;;;;;4.05;97.93;100429.00;6247951;22;20199;-63
2021/12/05 15:53:00;;;;;;;11.05;8.13;;;;;;;4.08;98.08;100441.97;6248489;23;20295;-62
2021/12/05 15:55:35;;;;;;;11.15;8.48;;;;;;;4.06;98.32;100439.38;6248155;22;20004;-63
2021/12/05 15:58:08;;;;;;;9.93;7.72;;;;;;;4.04;97.44;100451.44;6247650;22;20000;-66
2021/12/05 16:00:41;;;;;;;9.23;7.20;;;;;;;3.97;97.78;100438.44;6248149;22;20008;-65
2021/12/05 16:03:10;;;;;;;11.48;8.80;;;;;;;4.05;98.54;100447.13;6247903;22;20444;-66
2021/12/05 16:05:39;;;;;;;11.43;9.77;;;;;;;4.03;98.33;100451.41;6247858;22;20464;-66
2021/12/05 16:08:13;;;;;;;13.93;10.82;;;;;;;3.93;98.48;100447.03;6247925;22;20015;-66
2021/12/05 16:10:51;;;;;;;12.98;9.68;;;;;;;4.02;98.88;100465.22;6247769;22;20000;-65
2021/12/05 16:13:19;;;;;;;10.80;8.60;;;;;;;3.98;98.49;100460.91;6247670;22;20107;-65
2021/12/05 16:15:50;;;;;;;12.10;8.60;;;;;;;4.00;98.69;100466.94;6247396;22;20004;-65
2021/12/05 16:18:16;;;;;;;13.35;10.70;;;;;;;3.95;99.49;100461.75;6248313;22;20363;-66
2021/12/05 16:20:54;;;;;;;12.45;9.23;;;;;;;3.94;99.25;100469.50;6248193;22;20091;-65
2021/12/05 16:23:19;;;;;;;15.50;11.88;;;;;;;3.93;99.57;100484.16;6247855;22;20008;-66
2021/12/05 16:26:03;;;;;;;14.85;11.27;;;;;;;3.95;100.00;100497.97;6247969;23;20301;-66
2021/12/05 16:28:35;;;;;;;13.38;10.55;;;;;;;3.89;100.00;100482.38;6248056;23;20032;-65
2021/12/05 16:31:09;;;;;;;14.77;10.85;;;;;;;3.95;99.93;100497.13;6247626;22;20008;-66
2021/12/05 16:33:35;;;;;;;12.52;10.18;;;;;;;3.96;99.87;100504.03;6247661;22;19999;-66
2021/12/05 16:36:01;;;;;;;13.30;9.85;;;;;;;3.91;99.96;100497.94;6248000;22;20008;-65